Time;durP1;ratioP1;P1;durP2;ratioP2;P2;SDS_P1;SDS_P2;PMS_P1;PMS_P2;Temp;Humidity;BMP_temperature;BMP_pressure;BME280_temperature;BME280_humidity;BME280_pressure;Samples;Min_cycle;Max_cycle;Signal;HPM_P1;HPM_P2
2021/05/09 04:11:18;;;;;;;0.60;0.60;;;12.50;73.90;;;;;;5590765;23;20226;-78
2021/05/09 04:13:46;;;;;;;0.60;0.60;;;12.40;75.10;;;;;;5017172;28;20659;-81
2021/05/09 04:16:13;;;;;;;0.50;0.50;;;12.40;74.20;;;;;;5017304;28;20210;-79
2021/05/09 04:18:40;;;;;;;0.57;0.57;;;12.40;73.90;;;;;;5017511;28;20200;-78
2021/05/09 04:21:07;;;;;;;0.60;0.60;;;12.30;75.10;;;;;;5017691;28;20223;-79
2021/05/09 04:23:34;;;;;;;0.50;0.50;;;12.40;74.60;;;;;;5017435;28;20199;-79
2021/05/09 04:26:01;;;;;;;0.60;0.60;;;12.50;74.80;;;;;;5029672;23;20219;-73
2021/05/09 04:28:29;;;;;;;0.50;0.50;;;12.60;74.90;;;;;;5014726;28;20257;-72
2021/05/09 04:30:56;;;;;;;0.50;0.50;;;12.60;73.70;;;;;;5002464;28;20204;-71
2021/05/09 04:33:25;;;;;;;0.60;0.60;;;12.60;73.90;;;;;;4994573;28;20283;-71
2021/05/09 04:35:53;;;;;;;0.60;0.60;;;12.80;73.60;;;;;;4982965;28;20228;-74
2021/05/09 04:38:20;;;;;;;0.40;0.40;;;12.80;73.70;;;;;;4975059;28;20225;-71
2021/05/09 04:40:47;;;;;;;0.60;0.60;;;13.00;73.60;;;;;;4975697;28;20224;-72
2021/05/09 04:43:16;;;;;;;0.50;0.50;;;12.90;74.20;;;;;;4975382;28;20204;-73
2021/05/09 04:45:46;;;;;;;0.40;0.40;;;13.00;74.20;;;;;;4974913;28;20232;-72
2021/05/09 04:48:13;;;;;;;0.50;0.50;;;13.10;73.50;;;;;;4975040;28;20204;-71
2021/05/09 04:50:40;;;;;;;0.50;0.50;;;13.20;73.20;;;;;;4974953;28;20256;-71
2021/05/09 04:53:24;;;;;;;0.65;0.65;;;13.40;73.10;;;;;;4974909;28;20216;-72
2021/05/09 04:55:51;;;;;;;0.60;0.60;;;13.40;72.80;;;;;;4974788;28;20286;-72
2021/05/09 04:58:18;;;;;;;0.50;0.50;;;13.50;72.80;;;;;;4975088;28;20237;-73
2021/05/09 05:00:46;;;;;;;0.60;0.60;;;13.40;73.00;;;;;;4974901;28;20259;-73
2021/05/09 05:03:14;;;;;;;0.50;0.50;;;13.40;72.70;;;;;;4974879;28;20732;-74
2021/05/09 05:05:41;;;;;;;0.50;0.50;;;13.30;73.20;;;;;;4974785;28;20264;-73
2021/05/09 05:08:08;;;;;;;0.50;0.50;;;13.20;72.80;;;;;;4975645;28;20251;-73
2021/05/09 05:10:35;;;;;;;0.60;0.60;;;13.30;73.20;;;;;;4976241;28;20233;-72
2021/05/09 05:13:01;;;;;;;0.60;0.60;;;13.50;72.50;;;;;;4975585;28;20204;-73
2021/05/09 05:15:28;;;;;;;0.52;0.52;;;13.60;72.80;;;;;;4975797;28;20224;-73
2021/05/09 05:17:57;;;;;;;0.50;0.50;;;13.70;72.20;;;;;;4976970;28;20217;-73
2021/05/09 05:20:24;;;;;;;0.68;0.68;;;13.70;72.20;;;;;;4975733;28;20236;-73
2021/05/09 05:22:51;;;;;;;0.50;0.50;;;13.70;72.10;;;;;;4974691;28;20247;-73
2021/05/09 05:25:18;;;;;;;0.50;0.50;;;13.70;72.40;;;;;;4974015;28;20295;-73
2021/05/09 05:27:45;;;;;;;0.50;0.50;;;13.70;72.60;;;;;;4974374;28;20259;-72
2021/05/09 05:30:13;;;;;;;0.60;0.60;;;13.80;72.20;;;;;;4973917;28;20259;-72
2021/05/09 05:32:41;;;;;;;0.55;0.55;;;13.80;72.10;;;;;;4974150;28;20212;-72
2021/05/09 05:35:09;;;;;;;0.55;0.55;;;13.90;72.10;;;;;;4973808;28;20564;-73
2021/05/09 05:37:36;;;;;;;0.50;0.50;;;14.00;71.90;;;;;;4974204;28;20232;-75
2021/05/09 05:40:04;;;;;;;0.50;0.50;;;14.00;72.10;;;;;;4973906;28;20212;-73
2021/05/09 05:42:31;;;;;;;0.50;0.50;;;14.20;72.10;;;;;;4973896;28;20613;-72
2021/05/09 05:44:58;;;;;;;0.40;0.40;;;14.20;72.70;;;;;;4976167;28;20275;-73
2021/05/09 05:47:25;;;;;;;0.60;0.60;;;14.20;71.90;;;;;;4973893;28;20209;-72
2021/05/09 05:49:55;;;;;;;0.50;0.50;;;14.30;71.90;;;;;;4973797;28;20201;-73
2021/05/09 05:52:23;;;;;;;0.50;0.50;;;14.40;72.30;;;;;;4973780;28;20208;-70
2021/05/09 05:54:50;;;;;;;0.50;0.50;;;14.70;95.00;;;;;;4973458;28;20267;-71
2021/05/09 05:57:17;;;;;;;0.50;0.50;;;14.70;71.80;;;;;;4973538;28;20224;-72
2021/05/09 05:59:45;;;;;;;0.50;0.50;;;14.80;71.00;;;;;;4973551;28;20204;-72
2021/05/09 06:02:12;;;;;;;0.40;0.40;;;14.90;71.70;;;;;;4973345;28;20212;-75
2021/05/09 06:04:40;;;;;;;0.50;0.50;;;15.00;70.80;;;;;;4972776;28;20213;-76
2021/05/09 06:07:07;;;;;;;0.40;0.40;;;15.20;71.80;;;;;;4985387;28;20201;-76
2021/05/09 06:09:35;;;;;;;0.40;0.40;;;15.50;72.40;;;;;;4976976;28;20204;-75
2021/05/09 06:12:02;;;;;;;0.40;0.40;;;15.50;99.90;;;;;;4973168;28;20240;-74
2021/05/09 06:14:29;;;;;;;0.40;0.40;;;15.70;69.70;;;;;;4973353;28;20220;-76
2021/05/09 06:16:56;;;;;;;0.40;0.40;;;15.70;70.00;;;;;;4973026;28;20676;-74
2021/05/09 06:19:23;;;;;;;0.40;0.40;;;15.90;69.40;;;;;;4972194;28;20288;-74
2021/05/09 06:21:50;;;;;;;0.40;0.40;;;15.70;69.10;;;;;;4973303;28;20200;-71
2021/05/09 06:24:17;;;;;;;0.40;0.40;;;16.00;69.10;;;;;;4973307;28;20259;-71
2021/05/09 06:26:45;;;;;;;0.40;0.40;;;16.00;68.30;;;;;;4972973;28;20243;-74
2021/05/09 06:29:13;;;;;;;0.30;0.30;;;16.10;68.50;;;;;;4973521;28;20259;-74
2021/05/09 06:31:39;;;;;;;0.50;0.50;;;16.30;68.20;;;;;;4973410;28;20208;-74
2021/05/09 06:34:07;;;;;;;0.30;0.30;;;16.30;67.50;;;;;;4973191;28;20208;-74
2021/05/09 06:36:34;;;;;;;0.30;0.30;;;16.40;68.50;;;;;;4972873;28;20225;-72
2021/05/09 06:39:03;;;;;;;0.40;0.40;;;16.40;66.80;;;;;;4973127;28;20204;-72
2021/05/09 06:41:31;;;;;;;0.40;0.40;;;16.40;67.00;;;;;;4972962;28;20212;-71
2021/05/09 06:44:01;;;;;;;0.40;0.40;;;16.60;66.90;;;;;;4971547;28;20230;-71
2021/05/09 06:46:28;;;;;;;0.30;0.30;;;16.80;66.10;;;;;;4974251;28;20279;-72
2021/05/09 06:48:56;;;;;;;0.40;0.40;;;16.80;66.00;;;;;;4978760;28;20669;-74
2021/05/09 06:51:24;;;;;;;0.30;0.30;;;;;;;;;;4976220;28;20211;-73
2021/05/09 06:53:55;;;;;;;0.40;0.40;;;;;;;;;;4972903;28;20270;-73
2021/05/09 06:56:22;;;;;;;0.40;0.40;;;17.10;65.00;;;;;;4973087;28;20760;-72
2021/05/09 06:58:49;;;;;;;0.40;0.40;;;17.20;65.00;;;;;;4974530;28;20230;-72
2021/05/09 07:01:17;;;;;;;0.30;0.30;;;17.20;65.20;;;;;;4977448;28;20208;-71
2021/05/09 07:03:44;;;;;;;0.40;0.40;;;17.30;65.60;;;;;;4977048;28;20205;-72
2021/05/09 07:06:10;;;;;;;0.30;0.30;;;17.50;64.60;;;;;;4976664;28;20224;-74
2021/05/09 07:08:37;;;;;;;0.30;0.30;;;17.60;65.50;;;;;;4976890;28;20655;-72
2021/05/09 07:11:05;;;;;;;0.40;0.40;;;17.80;64.50;;;;;;4977034;28;20223;-72
2021/05/09 07:13:31;;;;;;;0.40;0.40;;;18.00;64.60;;;;;;4976936;28;20270;-73
2021/05/09 07:15:59;;;;;;;0.30;0.30;;;18.20;63.50;;;;;;4991063;28;20223;-74
2021/05/09 07:18:28;;;;;;;0.30;0.30;;;18.30;64.00;;;;;;4988343;28;20227;-74
2021/05/09 07:20:57;;;;;;;0.30;0.30;;;18.40;63.60;;;;;;4994181;28;20199;-75
2021/05/09 07:23:26;;;;;;;0.30;0.30;;;18.60;63.40;;;;;;4985488;28;20665;-75
2021/05/09 07:25:53;;;;;;;0.38;0.38;;;18.70;62.40;;;;;;4985238;28;20287;-75
2021/05/09 07:28:21;;;;;;;0.30;0.30;;;18.70;62.00;;;;;;4987165;28;20200;-75
2021/05/09 07:30:49;;;;;;;0.30;0.30;;;;;;;;;;4985900;28;20193;-75
2021/05/09 07:33:17;;;;;;;0.38;0.38;;;19.10;60.80;;;;;;4984941;28;20576;-74
2021/05/09 07:35:45;;;;;;;0.30;0.30;;;19.20;59.80;;;;;;4985117;28;20220;-75
2021/05/09 07:38:13;;;;;;;0.30;0.30;;;19.40;59.00;;;;;;4985540;28;20230;-75
2021/05/09 07:40:41;;;;;;;0.20;0.20;;;19.40;58.70;;;;;;4981956;28;20201;-74
2021/05/09 07:43:12;;;;;;;0.20;0.20;;;19.60;58.40;;;;;;4976493;28;20344;-75
2021/05/09 07:45:40;;;;;;;0.20;0.20;;;19.70;58.40;;;;;;4978751;28;20228;-74
2021/05/09 07:48:08;;;;;;;0.30;0.30;;;19.80;58.70;;;;;;4980543;28;20664;-75
2021/05/09 07:50:36;;;;;;;0.20;0.20;;;;;;;;;;4984943;28;20208;-76
2021/05/09 07:53:04;;;;;;;0.28;0.28;;;20.10;57.50;;;;;;4986439;28;20192;-75
2021/05/09 07:55:32;;;;;;;0.20;0.20;;;20.10;57.90;;;;;;4985513;28;20224;-74
2021/05/09 07:57:59;;;;;;;0.25;0.25;;;20.10;57.50;;;;;;4986644;28;20223;-75
2021/05/09 08:00:26;;;;;;;0.20;0.20;;;20.30;57.30;;;;;;4984679;28;20197;-74
2021/05/09 08:02:53;;;;;;;0.30;0.30;;;20.30;57.00;;;;;;4981664;28;20192;-75
2021/05/09 08:05:22;;;;;;;0.20;0.20;;;20.40;57.50;;;;;;4993531;28;20595;-75
2021/05/09 08:07:50;;;;;;;0.20;0.20;;;20.40;56.70;;;;;;4993450;28;20626;-75
2021/05/09 08:10:18;;;;;;;0.20;0.20;;;20.60;56.90;;;;;;4985955;28;20339;-74
2021/05/09 08:12:45;;;;;;;0.30;0.30;;;20.80;57.10;;;;;;4987670;28;20250;-75
2021/05/09 08:15:14;;;;;;;0.20;0.20;;;20.90;55.80;;;;;;4982977;28;20224;-76
2021/05/09 08:17:41;;;;;;;0.20;0.20;;;21.00;56.40;;;;;;4995644;28;20238;-75
2021/05/09 08:20:09;;;;;;;0.20;0.20;;;20.90;56.80;;;;;;4984692;28;20200;-74
2021/05/09 08:22:36;;;;;;;0.20;0.20;;;21.00;56.50;;;;;;4986186;28;20672;-69
2021/05/09 08:25:05;;;;;;;0.20;0.20;;;21.10;56.10;;;;;;4981520;28;20563;-70
2021/05/09 08:27:34;;;;;;;0.20;0.20;;;21.20;55.90;;;;;;4986812;28;20203;-70
2021/05/09 08:30:01;;;;;;;0.20;0.20;;;21.30;56.30;;;;;;4995288;28;20212;-69
2021/05/09 08:32:28;;;;;;;0.20;0.20;;;21.30;55.60;;;;;;4979310;28;20201;-70
2021/05/09 08:34:57;;;;;;;0.20;0.20;;;21.30;55.90;;;;;;4981635;28;20200;-70
2021/05/09 08:37:25;;;;;;;0.20;0.20;;;21.40;56.20;;;;;;4982310;28;20222;-68
2021/05/09 08:39:53;;;;;;;0.20;0.20;;;21.40;58.90;;;;;;4993262;28;20204;-70
2021/05/09 08:42:20;;;;;;;0.20;0.20;;;21.50;60.30;;;;;;4992118;28;20626;-74
2021/05/09 08:44:50;;;;;;;0.20;0.20;;;21.50;59.90;;;;;;4994974;28;20204;-73
2021/05/09 08:47:21;;;;;;;0.30;0.30;;;21.50;59.80;;;;;;4992128;28;20199;-80
2021/05/09 08:49:49;;;;;;;0.20;0.20;;;21.40;61.60;;;;;;4989112;28;20212;-73
2021/05/09 08:52:19;;;;;;;0.20;0.20;;;21.70;68.30;;;;;;4983256;28;20208;-74
2021/05/09 08:54:48;;;;;;;0.20;0.20;;;21.80;67.10;;;;;;4975029;28;20215;-75
2021/05/09 08:57:15;;;;;;;0.20;0.20;;;21.90;55.70;;;;;;4975725;28;20221;-74
2021/05/09 08:59:42;;;;;;;0.20;0.20;;;22.00;55.70;;;;;;4994424;28;20203;-76
2021/05/09 09:02:14;;;;;;;0.20;0.20;;;22.10;55.10;;;;;;4995466;28;20208;-77
2021/05/09 09:04:44;;;;;;;0.20;0.20;;;22.20;70.00;;;;;;4988778;28;20223;-71
2021/05/09 09:07:12;;;;;;;0.20;0.20;;;22.20;55.80;;;;;;4977837;28;20208;-76
2021/05/09 09:09:41;;;;;;;0.20;0.20;;;22.40;56.60;;;;;;4984016;28;20204;-76
2021/05/09 09:12:08;;;;;;;0.20;0.20;;;22.40;55.00;;;;;;4985204;28;20257;-77
2021/05/09 09:14:50;;;;;;;0.20;0.20;;;22.30;54.60;;;;;;4987078;28;20208;-78
2021/05/09 09:17:18;;;;;;;0.20;0.20;;;22.40;54.80;;;;;;4997522;28;20231;-78
2021/05/09 09:20:18;;;;;;;0.20;0.20;;;22.30;55.90;;;;;;4989246;28;20227;-79
2021/05/09 09:23:00;;;;;;;0.20;0.20;;;22.50;55.60;;;;;;4939568;29;20619;-79
2021/05/09 09:25:29;;;;;;;0.20;0.20;;;22.40;55.20;;;;;;4941232;29;20233;-75
2021/05/09 09:27:56;;;;;;;0.20;0.20;;;22.50;55.30;;;;;;4960186;28;20224;-78
2021/05/09 09:30:25;;;;;;;0.20;0.20;;;22.40;53.70;;;;;;4976571;28;20227;-75
2021/05/09 09:33:10;;;;;;;0.20;0.20;;;22.50;53.20;;;;;;4974373;28;20267;-75
2021/05/09 09:35:39;;;;;;;0.20;0.20;;;22.60;53.70;;;;;;4974815;28;20226;-76
2021/05/09 09:38:28;;;;;;;0.10;0.10;;;22.70;53.30;;;;;;4980960;28;20216;-76
2021/05/09 09:41:12;;;;;;;0.20;0.20;;;22.90;52.50;;;;;;4987564;28;20224;-76
2021/05/09 09:43:41;;;;;;;0.20;0.20;;;22.80;52.00;;;;;;4981530;28;20196;-76
2021/05/09 09:46:27;;;;;;;0.20;0.20;;;23.10;53.10;;;;;;4982730;28;20216;-79
2021/05/09 09:48:55;;;;;;;0.20;0.20;;;22.90;54.20;;;;;;4976681;28;20180;-78
2021/05/09 09:51:22;;;;;;;0.10;0.10;;;23.00;53.90;;;;;;4979468;28;20200;-76
2021/05/09 09:53:49;;;;;;;0.20;0.20;;;23.10;74.40;;;;;;4990862;28;20211;-76
2021/05/09 09:56:17;;;;;;;0.20;0.20;;;23.10;51.40;;;;;;4980269;28;20291;-76
2021/05/09 09:58:50;;;;;;;0.20;0.20;;;23.30;52.20;;;;;;4981363;28;20200;-77
2021/05/09 10:01:19;;;;;;;0.20;0.20;;;23.40;52.30;;;;;;4974105;28;20193;-77
2021/05/09 10:03:47;;;;;;;0.10;0.10;;;23.50;52.90;;;;;;4975341;28;20209;-78
2021/05/09 10:06:16;;;;;;;0.10;0.10;;;23.60;53.10;;;;;;4973497;28;20236;-77
2021/05/09 10:08:43;;;;;;;0.20;0.20;;;23.70;51.00;;;;;;4978738;28;20193;-75
2021/05/09 10:11:10;;;;;;;0.20;0.20;;;23.70;52.30;;;;;;4992707;28;20223;-76
2021/05/09 10:13:38;;;;;;;0.20;0.20;;;23.70;52.20;;;;;;4993003;28;20715;-73
2021/05/09 10:16:06;;;;;;;0.10;0.10;;;23.90;54.30;;;;;;4992620;28;20220;-73
2021/05/09 10:18:34;;;;;;;0.20;0.20;;;24.00;53.50;;;;;;4993110;28;20270;-73
2021/05/09 10:21:01;;;;;;;0.20;0.20;;;24.10;52.80;;;;;;4993048;28;20246;-73
2021/05/09 10:23:29;;;;;;;0.10;0.10;;;24.10;54.00;;;;;;4992891;28;20204;-75
2021/05/09 10:25:57;;;;;;;0.17;0.17;;;24.10;53.00;;;;;;4993054;28;20310;-75
2021/05/09 10:28:27;;;;;;;0.10;0.10;;;24.20;51.00;;;;;;4993372;28;20546;-73
2021/05/09 10:30:55;;;;;;;0.10;0.10;;;24.20;52.00;;;;;;4993014;28;20212;-71
2021/05/09 10:33:42;;;;;;;0.10;0.10;;;24.20;51.30;;;;;;4983622;28;20204;-70
2021/05/09 10:36:10;;;;;;;0.10;0.10;;;24.30;53.50;;;;;;4973406;28;20228;-74
2021/05/09 10:39:09;;;;;;;0.20;0.20;;;24.30;51.80;;;;;;4981546;28;20712;-72
2021/05/09 10:41:37;;;;;;;0.10;0.10;;;24.10;51.40;;;;;;4976013;28;20736;-74
2021/05/09 10:44:37;;;;;;;0.10;0.10;;;24.10;50.60;;;;;;4973106;28;20291;-73
2021/05/09 10:47:05;;;;;;;0.10;0.10;;;24.30;53.20;;;;;;4973106;28;20236;-73
2021/05/09 10:49:32;;;;;;;0.10;0.10;;;24.50;52.40;;;;;;4973033;28;20208;-72
2021/05/09 10:52:34;;;;;;;0.10;0.10;;;24.60;52.70;;;;;;4973382;28;20259;-73
2021/05/09 10:55:01;;;;;;;0.20;0.20;;;24.60;52.40;;;;;;4984227;28;20266;-73
2021/05/09 10:57:44;;;;;;;0.10;0.10;;;24.80;54.20;;;;;;4992536;28;20200;-72
2021/05/09 11:00:12;;;;;;;0.10;0.10;;;24.80;52.80;;;;;;4992272;28;20230;-71
2021/05/09 11:02:39;;;;;;;0.10;0.10;;;24.80;52.40;;;;;;4992678;28;20207;-73
2021/05/09 11:05:06;;;;;;;0.10;0.10;;;24.70;52.90;;;;;;4992460;28;20282;-73
2021/05/09 11:07:44;;;;;;;0.10;0.10;;;24.70;54.10;;;;;;4992505;28;20735;-73
2021/05/09 11:10:39;;;;;;;0.10;0.10;;;24.80;53.00;;;;;;4992152;28;20254;-73
2021/05/09 11:13:07;;;;;;;0.10;0.10;;;25.00;53.20;;;;;;4969150;28;20208;-73
2021/05/09 11:15:34;;;;;;;0.10;0.10;;;25.00;50.90;;;;;;4992083;28;20228;-72
2021/05/09 11:18:12;;;;;;;0.10;0.10;;;25.10;51.20;;;;;;4992478;28;20224;-73
2021/05/09 11:20:50;;;;;;;0.10;0.10;;;25.00;53.30;;;;;;4992138;28;20271;-72
2021/05/09 11:23:18;;;;;;;0.10;0.10;;;25.00;52.70;;;;;;4992547;28;20208;-71
2021/05/09 11:25:45;;;;;;;0.10;0.10;;;25.10;51.20;;;;;;4992000;28;20264;-71
2021/05/09 11:28:12;;;;;;;0.10;0.10;;;25.00;51.30;;;;;;4992389;28;20208;-74
2021/05/09 11:30:39;;;;;;;0.10;0.10;;;25.00;52.70;;;;;;4992231;28;20200;-72
2021/05/09 11:33:06;;;;;;;0.10;0.10;;;25.10;52.00;;;;;;4992292;28;20200;-72
2021/05/09 11:35:37;;;;;;;0.10;0.10;;;25.20;53.70;;;;;;4991924;28;20238;-71
2021/05/09 11:38:04;;;;;;;0.10;0.10;;;25.30;50.60;;;;;;4992391;28;20228;-71
2021/05/09 11:40:31;;;;;;;0.17;0.17;;;25.40;51.90;;;;;;4992129;28;20231;-73
2021/05/09 11:42:58;;;;;;;0.10;0.10;;;25.30;52.80;;;;;;4992062;28;20692;-71
2021/05/09 11:45:27;;;;;;;0.10;0.10;;;25.30;53.30;;;;;;4993952;28;20658;-71
2021/05/09 11:47:54;;;;;;;0.10;0.10;;;25.40;53.10;;;;;;4996023;28;20200;-70
2021/05/09 11:50:21;;;;;;;0.10;0.10;;;25.20;52.40;;;;;;4995847;28;20211;-72
2021/05/09 11:52:50;;;;;;;0.10;0.10;;;25.30;54.00;;;;;;4995871;28;20219;-74
2021/05/09 11:55:18;;;;;;;0.10;0.10;;;25.50;54.30;;;;;;4984239;28;20270;-74
2021/05/09 11:57:45;;;;;;;0.10;0.10;;;25.70;53.20;;;;;;4976198;28;20221;-75
2021/05/09 12:00:15;;;;;;;0.10;0.10;;;25.80;54.60;;;;;;4978360;28;20681;-74
2021/05/09 12:02:44;;;;;;;0.10;0.10;;;25.70;53.30;;;;;;4977210;28;20670;-73
2021/05/09 12:05:12;;;;;;;0.10;0.10;;;25.70;54.80;;;;;;4984510;28;20220;-76
2021/05/09 12:07:47;;;;;;;0.10;0.10;;;26.00;54.30;;;;;;4981669;28;20223;-74
2021/05/09 12:10:16;;;;;;;0.10;0.10;;;25.90;53.00;;;;;;4985983;28;20223;-75
2021/05/09 12:12:44;;;;;;;0.10;0.10;;;26.00;54.70;;;;;;4986601;28;20200;-77
2021/05/09 12:15:15;;;;;;;0.10;0.10;;;26.30;52.70;;;;;;4980586;28;20221;-74
2021/05/09 12:17:48;;;;;;;0.10;0.10;;;26.30;53.70;;;;;;4976057;28;20263;-73
2021/05/09 12:20:40;;;;;;;0.10;0.10;;;26.20;53.10;;;;;;4975429;28;20681;-75
2021/05/09 12:23:09;;;;;;;0.10;0.10;;;26.20;53.80;;;;;;4965969;28;20525;-71
2021/05/09 12:25:40;;;;;;;0.10;0.10;;;26.20;71.60;;;;;;4974776;28;20438;-72
2021/05/09 12:28:12;;;;;;;0.10;0.10;;;26.30;52.90;;;;;;4975333;28;20599;-71
2021/05/09 12:30:42;;;;;;;0.10;0.10;;;26.90;52.40;;;;;;4975296;28;20232;-72
2021/05/09 12:33:09;;;;;;;0.10;0.10;;;26.60;50.50;;;;;;4975449;28;20255;-73
2021/05/09 12:35:44;;;;;;;0.10;0.10;;;27.00;52.30;;;;;;4974894;28;20377;-72
2021/05/09 12:38:11;;;;;;;0.10;0.10;;;27.30;50.90;;;;;;4986841;28;20258;-72
2021/05/09 12:40:39;;;;;;;0.10;0.10;;;27.80;52.30;;;;;;4994420;28;20816;-72
2021/05/09 12:43:08;;;;;;;0.10;0.10;;;27.80;50.50;;;;;;4994728;28;20295;-76
2021/05/09 12:45:41;;;;;;;0.10;0.10;;;28.10;50.80;;;;;;4994384;28;20656;-73
2021/05/09 12:48:14;;;;;;;0.10;0.10;;;28.10;50.40;;;;;;4994580;28;20223;-73
2021/05/09 12:50:52;;;;;;;0.10;0.10;;;28.10;49.50;;;;;;4994546;28;20255;-73
2021/05/09 12:53:39;;;;;;;0.10;0.10;;;28.40;59.90;;;;;;4994556;28;20210;-73
2021/05/09 12:56:19;;;;;;;0.10;0.10;;;27.90;58.10;;;;;;4993248;28;20291;-72
2021/05/09 12:59:08;;;;;;;0.10;0.10;;;28.00;53.40;;;;;;4994227;28;20223;-72
2021/05/09 13:01:38;;;;;;;0.10;0.10;;;28.20;50.00;;;;;;4993441;28;20583;-74
2021/05/09 13:04:26;;;;;;;0.10;0.10;;;27.80;49.50;;;;;;4994429;28;20577;-73
2021/05/09 13:06:53;;;;;;;0.10;0.10;;;28.00;53.70;;;;;;4994597;28;20228;-72
2021/05/09 13:09:20;;;;;;;0.10;0.10;;;;;;;;;;4995181;28;20200;-75
2021/05/09 13:11:47;;;;;;;0.10;0.10;;;;;;;;;;4992210;28;20208;-75
2021/05/09 13:14:14;;;;;;;0.10;0.10;;;28.90;89.50;;;;;;4990687;28;20211;-74
2021/05/09 13:16:42;;;;;;;0.10;0.10;;;29.50;59.50;;;;;;4990780;28;20228;-75
2021/05/09 13:19:09;;;;;;;0.10;0.10;;;29.70;50.60;;;;;;4990781;28;20808;-74
2021/05/09 13:21:37;;;;;;;0.10;0.10;;;29.10;48.40;;;;;;4990270;28;20215;-75
2021/05/09 13:24:05;;;;;;;0.10;0.10;;;29.30;48.40;;;;;;4990609;28;20207;-73
2021/05/09 13:26:32;;;;;;;0.10;0.10;;;29.40;49.90;;;;;;4991981;28;20227;-72
2021/05/09 13:28:59;;;;;;;0.10;0.10;;;29.60;48.70;;;;;;4987234;28;20204;-74
2021/05/09 13:31:27;;;;;;;0.10;0.10;;;29.30;50.10;;;;;;4974229;28;20258;-74
2021/05/09 13:33:54;;;;;;;0.10;0.10;;;29.40;50.20;;;;;;4974090;28;20696;-72
2021/05/09 13:36:21;;;;;;;0.10;0.10;;;29.50;49.30;;;;;;4974306;28;20227;-72
2021/05/09 13:38:48;;;;;;;0.10;0.10;;;29.70;49.40;;;;;;4972079;28;20225;-71
2021/05/09 13:41:15;;;;;;;0.10;0.10;;;29.60;48.40;;;;;;4973984;28;20213;-73
2021/05/09 13:43:42;;;;;;;0.10;0.10;;;29.50;50.20;;;;;;4973677;28;20271;-71
2021/05/09 13:46:13;;;;;;;0.10;0.10;;;29.20;50.20;;;;;;4973500;28;20228;-72
2021/05/09 13:48:40;;;;;;;0.10;0.10;;;29.20;49.50;;;;;;4973384;28;20300;-71
2021/05/09 13:51:09;;;;;;;0.10;0.10;;;29.20;50.20;;;;;;4973951;28;20208;-72
2021/05/09 13:53:35;;;;;;;0.10;0.10;;;28.90;49.40;;;;;;4973951;28;20750;-72
2021/05/09 13:56:04;;;;;;;0.10;0.10;;;29.20;50.70;;;;;;4973834;28;20228;-71
2021/05/09 13:58:31;;;;;;;0.10;0.10;;;29.30;48.80;;;;;;4973703;28;20217;-72
2021/05/09 14:00:59;;;;;;;0.10;0.10;;;29.60;48.50;;;;;;4973635;28;20205;-71
2021/05/09 14:03:26;;;;;;;0.10;0.10;;;29.80;48.00;;;;;;4973918;28;20235;-74
2021/05/09 14:05:53;;;;;;;0.10;0.10;;;30.00;49.90;;;;;;4973200;28;20228;-73
2021/05/09 14:08:21;;;;;;;0.10;0.10;;;30.00;47.90;;;;;;4973618;28;20264;-71
2021/05/09 14:10:48;;;;;;;0.10;0.10;;;30.30;49.10;;;;;;4973723;28;20204;-71
2021/05/09 14:13:15;;;;;;;0.10;0.10;;;30.00;48.20;;;;;;4973528;28;20212;-71
2021/05/09 14:15:46;;;;;;;0.10;0.10;;;30.20;48.20;;;;;;4973400;28;20232;-72
2021/05/09 14:18:13;;;;;;;0.10;0.10;;;30.30;48.30;;;;;;4973349;28;20220;-72
2021/05/09 14:20:40;;;;;;;0.10;0.10;;;30.40;47.80;;;;;;4974243;28;20215;-76
2021/05/09 14:23:07;;;;;;;0.10;0.10;;;30.30;47.30;;;;;;4973759;28;20685;-71
2021/05/09 14:25:35;;;;;;;0.10;0.10;;;30.20;48.40;;;;;;4973269;28;20647;-70
2021/05/09 14:28:02;;;;;;;0.10;0.10;;;30.30;47.90;;;;;;4973579;28;20207;-70
2021/05/09 14:30:29;;;;;;;0.10;0.10;;;30.20;47.20;;;;;;4973795;28;20208;-75
2021/05/09 14:32:56;;;;;;;0.10;0.10;;;30.00;48.50;;;;;;4974876;28;20364;-78
2021/05/09 14:35:24;;;;;;;0.10;0.10;;;29.80;48.40;;;;;;4975370;28;20275;-80
2021/05/09 14:37:51;;;;;;;0.10;0.10;;;29.90;48.00;;;;;;4975749;28;20204;-77
2021/05/09 14:40:18;;;;;;;0.10;0.10;;;30.00;48.20;;;;;;4972405;28;20227;-74
2021/05/09 14:42:46;;;;;;;0.10;0.10;;;30.20;48.80;;;;;;4988968;28;20266;-77
2021/05/09 14:45:14;;;;;;;0.00;0.00;;;30.40;48.00;;;;;;4986267;28;20327;-78
2021/05/09 14:47:41;;;;;;;0.10;0.10;;;30.70;47.10;;;;;;4998444;28;20235;-77
2021/05/09 14:50:10;;;;;;;0.10;0.10;;;30.90;46.10;;;;;;5000457;28;20204;-78
2021/05/09 14:52:37;;;;;;;0.00;0.00;;;30.80;46.30;;;;;;4996724;28;20246;-78
2021/05/09 14:55:06;;;;;;;0.10;0.10;;;30.80;46.50;;;;;;4993425;28;20227;-77
2021/05/09 14:57:33;;;;;;;0.10;0.10;;;30.70;46.50;;;;;;4995581;28;20208;-77
2021/05/09 15:00:01;;;;;;;0.00;0.00;;;30.70;47.00;;;;;;4993946;28;20275;-77
2021/05/09 15:02:28;;;;;;;0.08;0.08;;;30.60;46.60;;;;;;4995208;28;20200;-79
2021/05/09 15:04:57;;;;;;;0.00;0.00;;;30.60;46.90;;;;;;4994754;28;20199;-78
2021/05/09 15:07:24;;;;;;;0.10;0.10;;;30.70;46.60;;;;;;4994204;28;20290;-77
2021/05/09 15:09:51;;;;;;;0.08;0.08;;;30.40;46.80;;;;;;4993157;28;20199;-77
2021/05/09 15:12:18;;;;;;;0.10;0.10;;;30.20;46.60;;;;;;4993866;28;20291;-77
2021/05/09 15:14:45;;;;;;;0.10;0.10;;;30.00;47.60;;;;;;4997407;28;20203;-77
2021/05/09 15:17:13;;;;;;;0.10;0.10;;;30.00;48.10;;;;;;4993999;28;20294;-77
2021/05/09 15:19:43;;;;;;;0.10;0.10;;;30.10;47.70;;;;;;4994226;28;20223;-76
2021/05/09 15:22:11;;;;;;;0.10;0.10;;;29.80;48.20;;;;;;4998869;28;20286;-76
2021/05/09 15:24:39;;;;;;;0.10;0.10;;;29.70;48.90;;;;;;5000083;28;20283;-78
2021/05/09 15:27:06;;;;;;;0.10;0.10;;;29.60;49.30;;;;;;4999310;28;20208;-76
2021/05/09 15:29:34;;;;;;;0.10;0.10;;;29.50;49.00;;;;;;4996053;28;20585;-77
2021/05/09 15:32:01;;;;;;;0.10;0.10;;;29.30;48.10;;;;;;4995971;28;20199;-76
2021/05/09 15:34:31;;;;;;;0.10;0.10;;;29.20;48.70;;;;;;4995290;28;20277;-75
2021/05/09 15:37:01;;;;;;;0.10;0.10;;;28.90;48.70;;;;;;4995779;28;20285;-75
2021/05/09 15:39:29;;;;;;;0.10;0.10;;;28.90;48.50;;;;;;4988946;28;20228;-76
2021/05/09 15:41:57;;;;;;;0.10;0.10;;;28.90;48.50;;;;;;4986466;28;20255;-77
2021/05/09 15:44:24;;;;;;;0.10;0.10;;;28.90;48.60;;;;;;4984492;28;20938;-76
2021/05/09 15:46:52;;;;;;;0.10;0.10;;;29.00;48.70;;;;;;4985599;28;20572;-76
2021/05/09 15:49:21;;;;;;;0.10;0.10;;;29.10;48.70;;;;;;4986293;28;20193;-76
2021/05/09 15:51:49;;;;;;;0.10;0.10;;;29.20;48.60;;;;;;4988102;28;20268;-76
2021/05/09 15:54:16;;;;;;;0.10;0.10;;;29.30;48.80;;;;;;4995335;28;20208;-76
2021/05/09 15:56:44;;;;;;;0.10;0.10;;;29.70;48.20;;;;;;4996305;28;20271;-76
2021/05/09 15:59:11;;;;;;;0.00;0.00;;;30.10;47.60;;;;;;4995447;28;20219;-76
2021/05/09 16:01:38;;;;;;;0.10;0.10;;;30.40;47.30;;;;;;4995579;28;20200;-76
2021/05/09 16:04:05;;;;;;;0.10;0.10;;;30.70;47.30;;;;;;4996818;28;20739;-76
2021/05/09 16:06:32;;;;;;;0.00;0.00;;;31.20;45.80;;;;;;4998080;28;20228;-77
2021/05/09 16:09:00;;;;;;;0.00;0.00;;;31.80;91.20;;;;;;4995586;28;20203;-75
2021/05/09 16:11:27;;;;;;;0.00;0.00;;;32.00;48.30;;;;;;4995694;28;20262;-72
2021/05/09 16:13:56;;;;;;;0.00;0.00;;;32.20;48.60;;;;;;4995241;28;20270;-77
2021/05/09 16:16:23;;;;;;;0.00;0.00;;;32.50;44.30;;;;;;4995052;28;20232;-76
2021/05/09 16:18:50;;;;;;;0.10;0.10;;;32.80;43.30;;;;;;4994910;28;20227;-77
2021/05/09 16:21:17;;;;;;;0.00;0.00;;;32.70;42.70;;;;;;4996902;28;20199;-76
2021/05/09 16:23:45;;;;;;;0.00;0.00;;;;;;;;;;4999838;28;20203;-79
2021/05/09 16:26:12;;;;;;;0.00;0.00;;;33.50;41.60;;;;;;5003591;28;20228;-78
2021/05/09 16:28:39;;;;;;;0.00;0.00;;;33.80;41.40;;;;;;4988459;28;20201;-78
2021/05/09 16:31:06;;;;;;;0.00;0.00;;;34.00;41.00;;;;;;4994098;28;20200;-77
2021/05/09 16:33:33;;;;;;;0.00;0.00;;;;;;;;;;4995998;28;20210;-79
2021/05/09 16:36:00;;;;;;;0.00;0.00;;;34.40;40.10;;;;;;4997296;28;20251;-78
2021/05/09 16:38:27;;;;;;;0.00;0.00;;;34.60;40.60;;;;;;4983446;28;20204;-75
2021/05/09 16:40:54;;;;;;;0.00;0.00;;;34.60;39.60;;;;;;4984602;28;20291;-76
2021/05/09 16:43:22;;;;;;;0.10;0.10;;;34.60;38.90;;;;;;4978611;28;20201;-75
2021/05/09 16:45:49;;;;;;;0.10;0.10;;;34.60;39.70;;;;;;4975409;28;20227;-76
2021/05/09 16:48:17;;;;;;;0.00;0.00;;;34.80;81.00;;;;;;4975097;28;20251;-76
2021/05/09 16:50:44;;;;;;;0.00;0.00;;;;;;;;;;4975008;28;20214;-76
2021/05/09 16:53:17;;;;;;;0.00;0.00;;;34.90;36.90;;;;;;4975019;28;20211;-76
2021/05/09 16:55:44;;;;;;;0.00;0.00;;;34.70;40.10;;;;;;4974745;28;20232;-76
2021/05/09 16:58:12;;;;;;;0.00;0.00;;;34.50;42.10;;;;;;4975284;28;20558;-76
2021/05/09 17:00:40;;;;;;;0.00;0.00;;;34.40;44.30;;;;;;4975519;28;20247;-76
2021/05/09 17:03:07;;;;;;;0.00;0.00;;;34.00;45.20;;;;;;4975096;28;20637;-76
2021/05/09 17:05:35;;;;;;;0.00;0.00;;;33.60;46.10;;;;;;4986438;28;20219;-76
2021/05/09 17:08:02;;;;;;;0.00;0.00;;;32.80;51.40;;;;;;4994556;28;20203;-77
2021/05/09 17:10:29;;;;;;;0.00;0.00;;;31.90;46.60;;;;;;4994301;28;20290;-76